sensor_id;sensor_type;location;lat;lon;timestamp;pressure;altitude;pressure_sealevel;temperature;humidity
39593;BME280;25286;48.870;9.084;2022-11-24T00:01:34;97267.75;;;5.75;nan
39593;BME280;25286;48.870;9.084;2022-11-24T00:04:02;97278.19;;;5.78;nan
39593;BME280;25286;48.870;9.084;2022-11-24T00:06:29;97273.94;;;5.82;nan
39593;BME280;25286;48.870;9.084;2022-11-24T00:08:55;97270.97;;;5.83;nan
39593;BME280;25286;48.870;9.084;2022-11-24T00:11:23;97276.88;;;5.80;nan
39593;BME280;25286;48.870;9.084;2022-11-24T00:13:49;97275.97;;;5.86;nan
39593;BME280;25286;48.870;9.084;2022-11-24T00:16:17;97281.25;;;5.81;nan
39593;BME280;25286;48.870;9.084;2022-11-24T00:18:45;97277.94;;;5.79;nan
39593;BME280;25286;48.870;9.084;2022-11-24T00:21:12;97287.19;;;5.78;nan
39593;BME280;25286;48.870;9.084;2022-11-24T00:23:38;97283.03;;;5.76;nan
39593;BME280;25286;48.870;9.084;2022-11-24T00:26:06;97283.97;;;5.81;nan
39593;BME280;25286;48.870;9.084;2022-11-24T00:28:32;97283.16;;;5.81;nan
39593;BME280;25286;48.870;9.084;2022-11-24T00:30:58;97277.25;;;5.84;nan
39593;BME280;25286;48.870;9.084;2022-11-24T00:33:24;97286.00;;;5.86;nan
39593;BME280;25286;48.870;9.084;2022-11-24T00:35:57;97289.09;;;5.90;nan
39593;BME280;25286;48.870;9.084;2022-11-24T00:38:23;97299.63;;;5.86;nan
39593;BME280;25286;48.870;9.084;2022-11-24T00:40:49;97298.91;;;5.91;nan
39593;BME280;25286;48.870;9.084;2022-11-24T00:43:15;97310.50;;;5.86;nan
39593;BME280;25286;48.870;9.084;2022-11-24T00:45:41;97304.59;;;5.77;nan
39593;BME280;25286;48.870;9.084;2022-11-24T00:48:07;97302.44;;;5.79;nan
39593;BME280;25286;48.870;9.084;2022-11-24T00:50:32;97304.09;;;5.80;nan
39593;BME280;25286;48.870;9.084;2022-11-24T00:52:58;97309.56;;;5.80;nan
39593;BME280;25286;48.870;9.084;2022-11-24T00:55:24;97315.38;;;5.84;nan
39593;BME280;25286;48.870;9.084;2022-11-24T00:57:49;97308.72;;;5.80;nan
39593;BME280;25286;48.870;9.084;2022-11-24T01:00:16;97316.44;;;5.83;nan
39593;BME280;25286;48.870;9.084;2022-11-24T01:02:42;97316.06;;;5.79;nan
39593;BME280;25286;48.870;9.084;2022-11-24T01:05:08;97314.16;;;5.80;nan
39593;BME280;25286;48.870;9.084;2022-11-24T01:07:33;97317.81;;;5.74;nan
39593;BME280;25286;48.870;9.084;2022-11-24T01:09:59;97318.66;;;5.74;nan
39593;BME280;25286;48.870;9.084;2022-11-24T01:12:24;97327.75;;;5.68;nan
39593;BME280;25286;48.870;9.084;2022-11-24T01:14:50;97323.47;;;5.72;nan
39593;BME280;25286;48.870;9.084;2022-11-24T01:17:16;97338.16;;;5.71;nan
39593;BME280;25286;48.870;9.084;2022-11-24T01:19:41;97341.00;;;5.76;nan
39593;BME280;25286;48.870;9.084;2022-11-24T01:22:07;97340.84;;;5.90;nan
39593;BME280;25286;48.870;9.084;2022-11-24T01:24:33;97340.44;;;6.04;nan
39593;BME280;25286;48.870;9.084;2022-11-24T01:26:58;97345.56;;;6.13;nan
39593;BME280;25286;48.870;9.084;2022-11-24T01:29:24;97340.97;;;6.25;nan
39593;BME280;25286;48.870;9.084;2022-11-24T01:31:50;97341.13;;;6.30;nan
39593;BME280;25286;48.870;9.084;2022-11-24T01:34:16;97347.06;;;6.39;nan
39593;BME280;25286;48.870;9.084;2022-11-24T01:36:41;97340.06;;;6.43;nan
39593;BME280;25286;48.870;9.084;2022-11-24T01:39:07;97346.72;;;6.47;nan
39593;BME280;25286;48.870;9.084;2022-11-24T01:41:33;97342.47;;;6.51;nan
39593;BME280;25286;48.870;9.084;2022-11-24T01:43:59;97346.59;;;6.53;nan
39593;BME280;25286;48.870;9.084;2022-11-24T01:46:42;97345.06;;;6.57;nan
39593;BME280;25286;48.870;9.084;2022-11-24T01:49:16;97343.16;;;6.58;nan
39593;BME280;25286;48.870;9.084;2022-11-24T01:51:56;97346.00;;;6.63;nan
39593;BME280;25286;48.870;9.084;2022-11-24T01:54:27;97352.06;;;6.65;nan
39593;BME280;25286;48.870;9.084;2022-11-24T01:57:01;97353.28;;;6.69;nan
39593;BME280;25286;48.870;9.084;2022-11-24T01:59:30;97359.78;;;6.68;nan
39593;BME280;25286;48.870;9.084;2022-11-24T02:01:58;97356.00;;;6.69;nan
39593;BME280;25286;48.870;9.084;2022-11-24T02:04:26;97363.31;;;6.69;nan
39593;BME280;25286;48.870;9.084;2022-11-24T02:06:55;97361.91;;;6.66;nan
39593;BME280;25286;48.870;9.084;2022-11-24T02:09:25;97368.78;;;6.69;nan
39593;BME280;25286;48.870;9.084;2022-11-24T02:11:52;97365.22;;;6.68;nan
39593;BME280;25286;48.870;9.084;2022-11-24T02:14:19;97371.75;;;6.67;nan
39593;BME280;25286;48.870;9.084;2022-11-24T02:16:49;97362.75;;;6.67;nan
39593;BME280;25286;48.870;9.084;2022-11-24T02:19:40;97365.34;;;6.61;nan
39593;BME280;25286;48.870;9.084;2022-11-24T02:24:51;97381.34;;;6.58;nan
39593;BME280;25286;48.870;9.084;2022-11-24T02:27:20;97373.16;;;6.58;nan
39593;BME280;25286;48.870;9.084;2022-11-24T02:29:46;97378.03;;;6.56;nan
39593;BME280;25286;48.870;9.084;2022-11-24T02:32:12;97378.13;;;6.49;nan
39593;BME280;25286;48.870;9.084;2022-11-24T02:34:39;97379.19;;;6.48;nan
39593;BME280;25286;48.870;9.084;2022-11-24T02:37:06;97373.72;;;6.48;nan
39593;BME280;25286;48.870;9.084;2022-11-24T02:39:32;97379.75;;;6.50;nan
39593;BME280;25286;48.870;9.084;2022-11-24T02:42:02;97382.50;;;6.50;nan
39593;BME280;25286;48.870;9.084;2022-11-24T02:44:33;97373.97;;;6.47;nan
39593;BME280;25286;48.870;9.084;2022-11-24T02:47:09;97370.88;;;6.43;nan
39593;BME280;25286;48.870;9.084;2022-11-24T02:49:35;97377.84;;;6.39;nan
39593;BME280;25286;48.870;9.084;2022-11-24T02:52:01;97373.25;;;6.40;nan
39593;BME280;25286;48.870;9.084;2022-11-24T02:54:27;97378.81;;;6.33;nan
39593;BME280;25286;48.870;9.084;2022-11-24T02:56:53;97387.19;;;6.31;nan
39593;BME280;25286;48.870;9.084;2022-11-24T02:59:18;97392.28;;;6.28;nan
39593;BME280;25286;48.870;9.084;2022-11-24T03:01:44;97386.59;;;6.29;nan
39593;BME280;25286;48.870;9.084;2022-11-24T03:04:10;97386.84;;;6.28;nan
39593;BME280;25286;48.870;9.084;2022-11-24T03:06:36;97394.16;;;6.27;nan
39593;BME280;25286;48.870;9.084;2022-11-24T03:09:02;97388.59;;;6.22;nan
39593;BME280;25286;48.870;9.084;2022-11-24T03:11:28;97390.72;;;6.20;nan
39593;BME280;25286;48.870;9.084;2022-11-24T03:13:54;97390.28;;;6.23;nan
39593;BME280;25286;48.870;9.084;2022-11-24T03:16:20;97397.81;;;6.21;nan
39593;BME280;25286;48.870;9.084;2022-11-24T03:18:45;97389.53;;;6.16;nan
39593;BME280;25286;48.870;9.084;2022-11-24T03:21:13;97396.63;;;6.17;nan
39593;BME280;25286;48.870;9.084;2022-11-24T03:23:38;97391.88;;;6.13;nan
39593;BME280;25286;48.870;9.084;2022-11-24T03:28:33;97402.63;;;6.07;nan
39593;BME280;25286;48.870;9.084;2022-11-24T03:30:59;97396.81;;;6.04;nan
39593;BME280;25286;48.870;9.084;2022-11-24T03:33:24;97404.16;;;6.03;nan
39593;BME280;25286;48.870;9.084;2022-11-24T03:35:50;97404.97;;;6.04;nan
39593;BME280;25286;48.870;9.084;2022-11-24T03:38:16;97401.66;;;6.02;nan
39593;BME280;25286;48.870;9.084;2022-11-24T03:40:41;97408.75;;;6.03;nan
39593;BME280;25286;48.870;9.084;2022-11-24T03:43:07;97417.19;;;6.01;nan
39593;BME280;25286;48.870;9.084;2022-11-24T03:45:32;97416.94;;;6.03;nan
39593;BME280;25286;48.870;9.084;2022-11-24T03:47:58;97416.09;;;6.02;nan
39593;BME280;25286;48.870;9.084;2022-11-24T03:50:24;97418.25;;;6.00;nan
39593;BME280;25286;48.870;9.084;2022-11-24T03:52:49;97428.91;;;6.02;nan
39593;BME280;25286;48.870;9.084;2022-11-24T03:55:15;97422.25;;;5.98;nan
39593;BME280;25286;48.870;9.084;2022-11-24T03:57:41;97424.38;;;5.96;nan
39593;BME280;25286;48.870;9.084;2022-11-24T04:00:07;97425.78;;;5.98;nan
39593;BME280;25286;48.870;9.084;2022-11-24T04:02:33;97425.56;;;6.00;nan
39593;BME280;25286;48.870;9.084;2022-11-24T04:04:58;97431.94;;;5.94;nan
39593;BME280;25286;48.870;9.084;2022-11-24T04:07:24;97436.31;;;5.95;nan
39593;BME280;25286;48.870;9.084;2022-11-24T04:09:49;97433.41;;;5.90;nan
39593;BME280;25286;48.870;9.084;2022-11-24T04:12:15;97435.53;;;5.88;nan
39593;BME280;25286;48.870;9.084;2022-11-24T04:14:59;97431.38;;;5.85;nan
39593;BME280;25286;48.870;9.084;2022-11-24T04:17:25;97443.56;;;5.82;nan
39593;BME280;25286;48.870;9.084;2022-11-24T04:19:50;97441.69;;;5.83;nan
39593;BME280;25286;48.870;9.084;2022-11-24T04:22:16;97443.09;;;5.85;nan
39593;BME280;25286;48.870;9.084;2022-11-24T04:24:41;97446.34;;;5.76;nan
39593;BME280;25286;48.870;9.084;2022-11-24T04:27:07;97455.34;;;5.76;nan
39593;BME280;25286;48.870;9.084;2022-11-24T04:29:33;97451.59;;;5.77;nan
39593;BME280;25286;48.870;9.084;2022-11-24T04:31:58;97460.78;;;5.76;nan
39593;BME280;25286;48.870;9.084;2022-11-24T04:34:24;97449.22;;;5.81;nan
39593;BME280;25286;48.870;9.084;2022-11-24T04:36:49;97460.34;;;5.79;nan
39593;BME280;25286;48.870;9.084;2022-11-24T04:39:15;97465.13;;;5.84;nan
39593;BME280;25286;48.870;9.084;2022-11-24T04:41:41;97467.00;;;5.83;nan
39593;BME280;25286;48.870;9.084;2022-11-24T04:44:06;97459.66;;;5.84;nan
39593;BME280;25286;48.870;9.084;2022-11-24T04:46:32;97453.69;;;5.75;nan
39593;BME280;25286;48.870;9.084;2022-11-24T04:48:58;97458.75;;;5.72;nan
39593;BME280;25286;48.870;9.084;2022-11-24T04:51:23;97455.44;;;5.70;nan
39593;BME280;25286;48.870;9.084;2022-11-24T04:53:49;97451.22;;;5.74;nan
39593;BME280;25286;48.870;9.084;2022-11-24T04:56:15;97451.22;;;5.74;nan
39593;BME280;25286;48.870;9.084;2022-11-24T04:58:40;97451.22;;;5.74;nan
39593;BME280;25286;48.870;9.084;2022-11-24T05:01:07;97457.47;;;5.74;nan
39593;BME280;25286;48.870;9.084;2022-11-24T05:03:34;97451.59;;;5.77;nan
39593;BME280;25286;48.870;9.084;2022-11-24T05:05:59;97456.19;;;5.77;nan
39593;BME280;25286;48.870;9.084;2022-11-24T05:08:25;97474.34;;;5.83;nan
39593;BME280;25286;48.870;9.084;2022-11-24T05:10:51;97472.59;;;5.89;nan
39593;BME280;25286;48.870;9.084;2022-11-24T05:13:17;97476.94;;;5.96;nan
39593;BME280;25286;48.870;9.084;2022-11-24T05:15:42;97475.63;;;5.99;nan
39593;BME280;25286;48.870;9.084;2022-11-24T05:18:11;97479.56;;;6.03;nan
39593;BME280;25286;48.870;9.084;2022-11-24T05:20:37;97475.78;;;6.04;nan
39593;BME280;25286;48.870;9.084;2022-11-24T05:23:04;97475.56;;;6.05;nan
39593;BME280;25286;48.870;9.084;2022-11-24T05:25:31;97483.94;;;6.04;nan
39593;BME280;25286;48.870;9.084;2022-11-24T05:28:01;97478.50;;;6.04;nan
39593;BME280;25286;48.870;9.084;2022-11-24T05:30:28;97481.38;;;6.09;nan
39593;BME280;25286;48.870;9.084;2022-11-24T05:32:54;97485.53;;;6.11;nan
39593;BME280;25286;48.870;9.084;2022-11-24T05:35:20;97486.38;;;6.12;nan
39593;BME280;25286;48.870;9.084;2022-11-24T05:37:46;97488.16;;;6.18;nan
39593;BME280;25286;48.870;9.084;2022-11-24T05:40:13;97483.59;;;6.19;nan
39593;BME280;25286;48.870;9.084;2022-11-24T05:42:38;97487.59;;;6.16;nan
39593;BME280;25286;48.870;9.084;2022-11-24T05:45:06;97482.13;;;6.16;nan
39593;BME280;25286;48.870;9.084;2022-11-24T05:47:34;97482.97;;;6.17;nan
39593;BME280;25286;48.870;9.084;2022-11-24T05:50:00;97481.69;;;6.19;nan
39593;BME280;25286;48.870;9.084;2022-11-24T05:52:26;97480.94;;;6.12;nan
39593;BME280;25286;48.870;9.084;2022-11-24T05:54:51;97483.28;;;6.08;nan
39593;BME280;25286;48.870;9.084;2022-11-24T05:57:17;97480.09;;;6.11;nan
39593;BME280;25286;48.870;9.084;2022-11-24T05:59:43;97482.38;;;6.15;nan
39593;BME280;25286;48.870;9.084;2022-11-24T06:02:08;97477.75;;;6.15;nan
39593;BME280;25286;48.870;9.084;2022-11-24T06:04:35;97473.97;;;6.16;nan
39593;BME280;25286;48.870;9.084;2022-11-24T06:07:01;97480.00;;;6.18;nan
39593;BME280;25286;48.870;9.084;2022-11-24T06:09:27;97487.34;;;6.18;nan
39593;BME280;25286;48.870;9.084;2022-11-24T06:11:53;97493.03;;;6.16;nan
39593;BME280;25286;48.870;9.084;2022-11-24T06:14:19;97485.94;;;6.15;nan
39593;BME280;25286;48.870;9.084;2022-11-24T06:16:44;97474.34;;;6.20;nan
39593;BME280;25286;48.870;9.084;2022-11-24T06:19:10;97484.16;;;6.21;nan
39593;BME280;25286;48.870;9.084;2022-11-24T06:21:36;97482.03;;;6.23;nan
39593;BME280;25286;48.870;9.084;2022-11-24T06:24:01;97489.16;;;6.24;nan
39593;BME280;25286;48.870;9.084;2022-11-24T06:26:27;97491.66;;;6.25;nan
39593;BME280;25286;48.870;9.084;2022-11-24T06:28:53;97495.44;;;6.24;nan
39593;BME280;25286;48.870;9.084;2022-11-24T06:31:18;97503.38;;;6.26;nan
39593;BME280;25286;48.870;9.084;2022-11-24T06:33:44;97504.84;;;6.28;nan
39593;BME280;25286;48.870;9.084;2022-11-24T06:36:12;97512.06;;;6.34;nan
39593;BME280;25286;48.870;9.084;2022-11-24T06:38:38;97517.53;;;6.34;nan
39593;BME280;25286;48.870;9.084;2022-11-24T06:41:11;97521.06;;;6.35;nan
39593;BME280;25286;48.870;9.084;2022-11-24T06:43:37;97527.97;;;6.38;nan
39593;BME280;25286;48.870;9.084;2022-11-24T06:46:03;97535.31;;;6.37;nan
39593;BME280;25286;48.870;9.084;2022-11-24T06:48:30;97533.88;;;6.34;nan
39593;BME280;25286;48.870;9.084;2022-11-24T06:51:03;97530.69;;;6.38;nan
39593;BME280;25286;48.870;9.084;2022-11-24T06:53:30;97543.03;;;6.40;nan
39593;BME280;25286;48.870;9.084;2022-11-24T06:55:57;97551.00;;;6.42;nan
39593;BME280;25286;48.870;9.084;2022-11-24T06:58:23;97551.56;;;6.44;nan
39593;BME280;25286;48.870;9.084;2022-11-24T07:00:49;97550.75;;;6.43;nan
39593;BME280;25286;48.870;9.084;2022-11-24T07:03:15;97561.88;;;6.42;nan
39593;BME280;25286;48.870;9.084;2022-11-24T07:05:42;97573.81;;;6.41;nan
39593;BME280;25286;48.870;9.084;2022-11-24T07:08:08;97571.94;;;6.41;nan
39593;BME280;25286;48.870;9.084;2022-11-24T07:10:34;97565.66;;;6.41;nan
39593;BME280;25286;48.870;9.084;2022-11-24T07:12:59;97570.50;;;6.39;nan
39593;BME280;25286;48.870;9.084;2022-11-24T07:15:28;97589.13;;;6.42;nan
39593;BME280;25286;48.870;9.084;2022-11-24T07:17:54;97592.91;;;6.41;nan
39593;BME280;25286;48.870;9.084;2022-11-24T07:20:20;97600.50;;;6.39;nan
39593;BME280;25286;48.870;9.084;2022-11-24T07:22:46;97600.63;;;6.44;nan
39593;BME280;25286;48.870;9.084;2022-11-24T07:25:12;97606.09;;;6.44;nan
39593;BME280;25286;48.870;9.084;2022-11-24T07:27:39;97616.97;;;6.44;nan
39593;BME280;25286;48.870;9.084;2022-11-24T07:30:06;97617.81;;;6.44;nan
39593;BME280;25286;48.870;9.084;2022-11-24T07:32:32;97623.72;;;6.41;nan
39593;BME280;25286;48.870;9.084;2022-11-24T07:34:58;97636.06;;;6.44;nan
39593;BME280;25286;48.870;9.084;2022-11-24T07:37:24;97628.34;;;6.41;nan
39593;BME280;25286;48.870;9.084;2022-11-24T07:39:51;97633.56;;;6.42;nan
39593;BME280;25286;48.870;9.084;2022-11-24T07:42:16;97645.75;;;6.40;nan
39593;BME280;25286;48.870;9.084;2022-11-24T07:44:42;97644.81;;;6.46;nan
39593;BME280;25286;48.870;9.084;2022-11-24T07:47:08;97655.28;;;6.49;nan
39593;BME280;25286;48.870;9.084;2022-11-24T07:49:33;97654.00;;;6.51;nan
39593;BME280;25286;48.870;9.084;2022-11-24T07:51:59;97656.88;;;6.38;nan
39593;BME280;25286;48.870;9.084;2022-11-24T07:54:25;97643.16;;;6.45;nan
39593;BME280;25286;48.870;9.084;2022-11-24T07:56:51;97635.69;;;6.40;nan
39593;BME280;25286;48.870;9.084;2022-11-24T07:59:16;97626.91;;;6.38;nan
39593;BME280;25286;48.870;9.084;2022-11-24T08:01:42;97626.53;;;6.34;nan
39593;BME280;25286;48.870;9.084;2022-11-24T08:04:08;97641.50;;;6.44;nan
39593;BME280;25286;48.870;9.084;2022-11-24T08:06:33;97638.69;;;6.50;nan
39593;BME280;25286;48.870;9.084;2022-11-24T08:08:59;97643.94;;;6.52;nan
39593;BME280;25286;48.870;9.084;2022-11-24T08:11:25;97638.88;;;6.55;nan
39593;BME280;25286;48.870;9.084;2022-11-24T08:13:51;97649.97;;;6.54;nan
39593;BME280;25286;48.870;9.084;2022-11-24T08:16:18;97654.69;;;6.47;nan
39593;BME280;25286;48.870;9.084;2022-11-24T08:18:54;97655.28;;;6.49;nan
39593;BME280;25286;48.870;9.084;2022-11-24T08:21:20;97653.53;;;6.54;nan
39593;BME280;25286;48.870;9.084;2022-11-24T08:23:47;97654.69;;;6.47;nan
39593;BME280;25286;48.870;9.084;2022-11-24T08:26:15;97662.34;;;6.56;nan
39593;BME280;25286;48.870;9.084;2022-11-24T08:28:43;97658.78;;;6.56;nan
39593;BME280;25286;48.870;9.084;2022-11-24T08:31:10;97666.44;;;6.47;nan
39593;BME280;25286;48.870;9.084;2022-11-24T08:33:37;97665.38;;;6.48;nan
39593;BME280;25286;48.870;9.084;2022-11-24T08:36:08;97677.78;;;6.44;nan
39593;BME280;25286;48.870;9.084;2022-11-24T08:38:34;97670.56;;;6.50;nan
39593;BME280;25286;48.870;9.084;2022-11-24T08:41:11;97666.28;;;6.42;nan
39593;BME280;25286;48.870;9.084;2022-11-24T08:43:37;97681.31;;;6.45;nan
39593;BME280;25286;48.870;9.084;2022-11-24T08:46:05;97683.63;;;6.48;nan
39593;BME280;25286;48.870;9.084;2022-11-24T08:48:31;97690.97;;;6.47;nan
39593;BME280;25286;48.870;9.084;2022-11-24T08:50:57;97687.41;;;6.47;nan
39593;BME280;25286;48.870;9.084;2022-11-24T08:53:25;97695.25;;;6.55;nan
39593;BME280;25286;48.870;9.084;2022-11-24T08:55:50;97689.59;;;6.56;nan
39593;BME280;25286;48.870;9.084;2022-11-24T08:58:16;97697.09;;;6.61;nan
39593;BME280;25286;48.870;9.084;2022-11-24T09:00:42;97687.03;;;6.61;nan
39593;BME280;25286;48.870;9.084;2022-11-24T09:03:09;97701.63;;;6.67;nan
39593;BME280;25286;48.870;9.084;2022-11-24T09:05:36;97694.53;;;6.66;nan
39593;BME280;25286;48.870;9.084;2022-11-24T09:08:02;97699.28;;;6.71;nan
39593;BME280;25286;48.870;9.084;2022-11-24T09:10:27;97698.22;;;6.72;nan
39593;BME280;25286;48.870;9.084;2022-11-24T09:12:53;97707.09;;;6.67;nan
39593;BME280;25286;48.870;9.084;2022-11-24T09:15:19;97707.91;;;6.68;nan
39593;BME280;25286;48.870;9.084;2022-11-24T09:17:45;97711.13;;;6.65;nan
39593;BME280;25286;48.870;9.084;2022-11-24T09:20:10;97711.72;;;6.67;nan
39593;BME280;25286;48.870;9.084;2022-11-24T09:22:36;97719.66;;;6.68;nan
39593;BME280;25286;48.870;9.084;2022-11-24T09:25:04;97723.69;;;6.66;nan
39593;BME280;25286;48.870;9.084;2022-11-24T09:27:30;97728.44;;;6.70;nan
39593;BME280;25286;48.870;9.084;2022-11-24T09:29:55;97727.78;;;6.75;nan
39593;BME280;25286;48.870;9.084;2022-11-24T09:32:21;97736.41;;;6.72;nan
39593;BME280;25286;48.870;9.084;2022-11-24T09:34:49;97732.84;;;6.71;nan
39593;BME280;25286;48.870;9.084;2022-11-24T09:37:16;97740.78;;;6.73;nan
39593;BME280;25286;48.870;9.084;2022-11-24T09:39:42;97748.38;;;6.71;nan
39593;BME280;25286;48.870;9.084;2022-11-24T09:47:56;97750.94;;;6.66;nan
39593;BME280;25286;48.870;9.084;2022-11-24T09:50:31;97751.25;;;6.76;nan
39593;BME280;25286;48.870;9.084;2022-11-24T09:53:09;97759.97;;;6.84;nan
39593;BME280;25286;48.870;9.084;2022-11-24T09:55:40;97774.81;;;6.88;nan
39593;BME280;25286;48.870;9.084;2022-11-24T09:58:30;97771.94;;;7.02;nan
39593;BME280;25286;48.870;9.084;2022-11-24T10:00:57;97765.03;;;6.99;nan
39593;BME280;25286;48.870;9.084;2022-11-24T10:05:54;97777.47;;;7.13;nan
39593;BME280;25286;48.870;9.084;2022-11-24T10:08:30;97774.81;;;7.25;nan
39593;BME280;25286;48.870;9.084;2022-11-24T10:10:59;97781.91;;;7.45;nan
39593;BME280;25286;48.870;9.084;2022-11-24T10:27:18;97778.94;;;7.46;nan
39593;BME280;25286;48.870;9.084;2022-11-24T10:29:50;97789.84;;;7.46;nan
39593;BME280;25286;48.870;9.084;2022-11-24T10:32:34;97780.84;;;7.46;nan
39593;BME280;25286;48.870;9.084;2022-11-24T10:35:26;97778.16;;;7.57;nan
39593;BME280;25286;48.870;9.084;2022-11-24T10:37:57;97786.50;;;7.62;nan
39593;BME280;25286;48.870;9.084;2022-11-24T10:40:34;97791.13;;;7.62;nan
39593;BME280;25286;48.870;9.084;2022-11-24T10:43:02;97780.66;;;7.59;nan
39593;BME280;25286;48.870;9.084;2022-11-24T10:45:30;97775.94;;;7.66;nan
39593;BME280;25286;48.870;9.084;2022-11-24T10:47:56;97781.22;;;7.79;nan
39593;BME280;25286;48.870;9.084;2022-11-24T10:50:24;97783.00;;;7.55;nan
39593;BME280;25286;48.870;9.084;2022-11-24T10:58:21;97784.72;;;7.68;nan
39593;BME280;25286;48.870;9.084;2022-11-24T11:00:47;97787.91;;;7.65;nan
39593;BME280;25286;48.870;9.084;2022-11-24T11:03:18;97781.88;;;7.63;nan
39593;BME280;25286;48.870;9.084;2022-11-24T11:05:59;97792.22;;;7.73;nan
39593;BME280;25286;48.870;9.084;2022-11-24T11:08:30;97792.78;;;7.63;nan
39593;BME280;25286;48.870;9.084;2022-11-24T11:11:19;97784.41;;;7.76;nan
39593;BME280;25286;48.870;9.084;2022-11-24T11:13:56;97789.44;;;7.91;nan
39593;BME280;25286;48.870;9.084;2022-11-24T11:18:51;97787.81;;;8.44;nan
39593;BME280;25286;48.870;9.084;2022-11-24T11:21:35;97784.25;;;8.55;nan
39593;BME280;25286;48.870;9.084;2022-11-24T11:24:12;97787.56;;;8.45;nan
39593;BME280;25286;48.870;9.084;2022-11-24T11:26:40;97788.41;;;8.57;nan
39593;BME280;25286;48.870;9.084;2022-11-24T11:31:36;97781.28;;;8.45;nan
39593;BME280;25286;48.870;9.084;2022-11-24T11:36:34;97778.47;;;8.33;nan
39593;BME280;25286;48.870;9.084;2022-11-24T11:39:02;97780.72;;;8.24;nan
39593;BME280;25286;48.870;9.084;2022-11-24T11:41:39;97785.22;;;8.72;nan
39593;BME280;25286;48.870;9.084;2022-11-24T11:46:47;97792.38;;;9.25;nan
39593;BME280;25286;48.870;9.084;2022-11-24T11:49:12;97783.84;;;9.22;nan
39593;BME280;25286;48.870;9.084;2022-11-24T11:52:00;97787.16;;;9.24;nan
39593;BME280;25286;48.870;9.084;2022-11-24T11:54:47;97781.22;;;9.27;nan
39593;BME280;25286;48.870;9.084;2022-11-24T12:00:20;97798.28;;;8.94;nan
39593;BME280;25286;48.870;9.084;2022-11-24T12:05:29;97795.66;;;8.87;nan
39593;BME280;25286;48.870;9.084;2022-11-24T12:10:45;97803.50;;;8.83;nan
39593;BME280;25286;48.870;9.084;2022-11-24T12:19:12;97806.06;;;9.37;nan
39593;BME280;25286;48.870;9.084;2022-11-24T12:22:01;97810.25;;;9.39;nan
39593;BME280;25286;48.870;9.084;2022-11-24T12:30:15;97811.94;;;9.05;nan
39593;BME280;25286;48.870;9.084;2022-11-24T12:35:51;97822.22;;;8.98;nan
39593;BME280;25286;48.870;9.084;2022-11-24T12:38:57;97820.50;;;8.97;nan
39593;BME280;25286;48.870;9.084;2022-11-24T12:42:33;97818.03;;;8.96;nan
39593;BME280;25286;48.870;9.084;2022-11-24T12:47:15;97831.13;;;8.94;nan
39593;BME280;25286;48.870;9.084;2022-11-24T12:52:29;97824.78;;;8.93;nan
39593;BME280;25286;48.870;9.084;2022-11-24T12:54:57;97823.72;;;9.06;nan
39593;BME280;25286;48.870;9.084;2022-11-24T12:57:28;97820.59;;;9.37;nan
39593;BME280;25286;48.870;9.084;2022-11-24T13:08:24;97816.66;;;13.94;nan
39593;BME280;25286;48.870;9.084;2022-11-24T13:10:51;97825.34;;;13.60;nan
39593;BME280;25286;48.870;9.084;2022-11-24T13:13:16;97808.38;;;17.30;nan
39593;BME280;25286;48.870;9.084;2022-11-24T13:24:02;97821.91;;;10.32;nan
39593;BME280;25286;48.870;9.084;2022-11-24T13:29:04;97833.09;;;9.85;nan
39593;BME280;25286;48.870;9.084;2022-11-24T13:31:30;97838.78;;;9.84;nan
39593;BME280;25286;48.870;9.084;2022-11-24T13:33:56;97841.88;;;9.87;nan
39593;BME280;25286;48.870;9.084;2022-11-24T13:47:27;97847.50;;;9.40;nan
39593;BME280;25286;48.870;9.084;2022-11-24T13:49:50;97846.09;;;9.26;nan
39593;BME280;25286;48.870;9.084;2022-11-24T14:03:19;97842.53;;;9.14;nan
39593;BME280;25286;48.870;9.084;2022-11-24T14:05:49;97842.28;;;9.27;nan
39593;BME280;25286;48.870;9.084;2022-11-24T14:08:29;97845.38;;;9.19;nan
39593;BME280;25286;48.870;9.084;2022-11-24T14:10:57;97834.78;;;9.23;nan
39593;BME280;25286;48.870;9.084;2022-11-24T14:13:26;97834.91;;;9.16;nan
39593;BME280;25286;48.870;9.084;2022-11-24T14:18:24;97828.84;;;9.02;nan
39593;BME280;25286;48.870;9.084;2022-11-24T14:20:50;97832.44;;;9.03;nan
39593;BME280;25286;48.870;9.084;2022-11-24T14:23:18;97834.56;;;9.01;nan
39593;BME280;25286;48.870;9.084;2022-11-24T14:25:48;97836.34;;;8.95;nan
39593;BME280;25286;48.870;9.084;2022-11-24T14:30:48;97833.97;;;8.99;nan
39593;BME280;25286;48.870;9.084;2022-11-24T14:33:14;97835.16;;;8.91;nan
39593;BME280;25286;48.870;9.084;2022-11-24T14:35:48;97842.06;;;8.94;nan
39593;BME280;25286;48.870;9.084;2022-11-24T14:38:14;97840.88;;;8.89;nan
39593;BME280;25286;48.870;9.084;2022-11-24T14:40:51;97840.28;;;8.87;nan
39593;BME280;25286;48.870;9.084;2022-11-24T14:43:27;97842.28;;;8.92;nan
39593;BME280;25286;48.870;9.084;2022-11-24T14:46:22;97847.28;;;9.07;nan
39593;BME280;25286;48.870;9.084;2022-11-24T14:48:49;97853.84;;;9.06;nan
39593;BME280;25286;48.870;9.084;2022-11-24T14:51:20;97864.19;;;9.04;nan
39593;BME280;25286;48.870;9.084;2022-11-24T14:53:49;97868.94;;;8.97;nan
39593;BME280;25286;48.870;9.084;2022-11-24T14:56:33;97866.81;;;8.99;nan
39593;BME280;25286;48.870;9.084;2022-11-24T14:58:59;97866.81;;;8.99;nan
39593;BME280;25286;48.870;9.084;2022-11-24T15:06:39;97872.03;;;8.88;nan
39593;BME280;25286;48.870;9.084;2022-11-24T15:09:05;97873.94;;;8.76;nan
39593;BME280;25286;48.870;9.084;2022-11-24T15:11:31;97874.06;;;8.81;nan
39593;BME280;25286;48.870;9.084;2022-11-24T15:13:57;97871.69;;;8.85;nan
39593;BME280;25286;48.870;9.084;2022-11-24T15:16:24;97881.28;;;8.64;nan
39593;BME280;25286;48.870;9.084;2022-11-24T15:19:00;97868.66;;;8.51;nan
39593;BME280;25286;48.870;9.084;2022-11-24T15:21:31;97866.88;;;8.45;nan
39593;BME280;25286;48.870;9.084;2022-11-24T15:24:24;97864.38;;;8.44;nan
39593;BME280;25286;48.870;9.084;2022-11-24T15:26:49;97871.13;;;8.41;nan
39593;BME280;25286;48.870;9.084;2022-11-24T15:29:22;97875.84;;;8.34;nan
39593;BME280;25286;48.870;9.084;2022-11-24T15:31:48;97869.19;;;8.30;nan
39593;BME280;25286;48.870;9.084;2022-11-24T15:34:13;97879.19;;;8.36;nan
39593;BME280;25286;48.870;9.084;2022-11-24T15:36:39;97879.28;;;8.29;nan
39593;BME280;25286;48.870;9.084;2022-11-24T15:39:05;97885.59;;;8.30;nan
39593;BME280;25286;48.870;9.084;2022-11-24T15:41:31;97884.75;;;8.29;nan